createdAt,value
2018-04-29T00:01:50.558Z,4.60
2018-04-29T00:04:16.500Z,5.03
2018-04-29T00:06:43.232Z,3.97
2018-04-29T00:09:10.453Z,4.53
2018-04-29T00:11:36.485Z,5.03
2018-04-29T00:14:03.646Z,4.00
2018-04-29T00:16:30.518Z,5.18
2018-04-29T00:18:56.491Z,4.45
2018-04-29T00:21:22.482Z,4.83
2018-04-29T00:23:49.203Z,5.20
2018-04-29T00:26:15.144Z,4.55
2018-04-29T00:28:41.153Z,5.27
2018-04-29T00:31:07.129Z,5.07
2018-04-29T00:33:33.136Z,5.87
2018-04-29T00:35:59.146Z,4.87
2018-04-29T00:38:25.405Z,5.75
2018-04-29T00:40:52.208Z,5.68
2018-04-29T00:43:18.172Z,6.85
2018-04-29T00:45:44.949Z,5.90
2018-04-29T00:48:10.989Z,5.30
2018-04-29T00:50:36.993Z,5.10
2018-04-29T00:53:03.969Z,5.95
2018-04-29T00:55:30.413Z,5.87
2018-04-29T00:57:56.424Z,5.47
2018-04-29T01:00:22.626Z,5.53
2018-04-29T01:02:48.581Z,6.10
2018-04-29T01:05:14.546Z,5.70
2018-04-29T01:07:40.553Z,5.63
2018-04-29T01:10:06.541Z,5.78
2018-04-29T01:12:33.461Z,4.95
2018-04-29T01:14:59.420Z,5.60
2018-04-29T01:17:25.398Z,6.77
2018-04-29T01:19:52.122Z,5.07
2018-04-29T01:22:18.081Z,6.40
2018-04-29T01:24:44.048Z,6.63
2018-04-29T01:27:10.015Z,5.80
2018-04-29T01:29:35.970Z,4.90
2018-04-29T01:32:01.955Z,6.20
2018-04-29T01:34:27.907Z,5.72
2018-04-29T01:36:53.870Z,5.43
2018-04-29T01:39:19.842Z,6.30
2018-04-29T01:41:45.819Z,5.70
2018-04-29T01:44:11.816Z,6.55
2018-04-29T01:46:38.749Z,6.05
2018-04-29T01:49:04.726Z,5.70
2018-04-29T01:51:32.489Z,6.05
2018-04-29T01:53:58.470Z,6.05
2018-04-29T01:56:24.442Z,5.70
2018-04-29T01:58:50.420Z,6.23
2018-04-29T02:01:16.362Z,6.13
2018-04-29T02:03:42.370Z,5.80
2018-04-29T02:06:08.370Z,5.97
2018-04-29T02:08:34.354Z,6.30
2018-04-29T02:11:01.138Z,6.30
2018-04-29T02:13:27.140Z,6.03
2018-04-29T02:15:53.096Z,6.15
2018-04-29T02:18:19.094Z,6.73
2018-04-29T02:20:45.093Z,5.97
2018-04-29T02:23:11.073Z,5.95
2018-04-29T02:25:37.832Z,6.60
2018-04-29T02:28:03.861Z,6.50
2018-04-29T02:30:29.865Z,6.12
2018-04-29T02:32:55.863Z,6.32
2018-04-29T02:35:21.834Z,7.40
2018-04-29T02:37:48.579Z,6.80
2018-04-29T02:40:14.553Z,6.07
2018-04-29T02:42:41.192Z,6.28
2018-04-29T02:45:07.153Z,6.85
2018-04-29T02:47:34.027Z,6.17
2018-04-29T02:50:00.056Z,5.35
2018-04-29T02:52:26.063Z,5.68
2018-04-29T02:54:52.051Z,5.32
2018-04-29T02:57:18.818Z,6.20
2018-04-29T02:59:44.782Z,6.12
2018-04-29T03:02:10.766Z,6.20
2018-04-29T03:04:37.777Z,5.65
2018-04-29T03:07:03.795Z,6.00
2018-04-29T03:09:29.783Z,5.70
2018-04-29T03:11:55.728Z,5.70
2018-04-29T03:14:21.720Z,6.00
2018-04-29T03:16:47.679Z,5.45
2018-04-29T03:19:13.700Z,6.17
2018-04-29T03:21:40.469Z,5.30
2018-04-29T03:24:07.220Z,5.95
2018-04-29T03:26:33.942Z,5.68
2018-04-29T03:28:59.939Z,6.28
2018-04-29T03:31:25.914Z,4.97
2018-04-29T03:33:51.897Z,5.50
2018-04-29T03:36:17.901Z,5.78
2018-04-29T03:38:43.855Z,5.70
2018-04-29T03:41:10.606Z,5.60
2018-04-29T03:43:36.612Z,5.82
2018-04-29T03:46:02.582Z,5.95
2018-04-29T03:48:28.563Z,6.23
2018-04-29T03:50:54.543Z,6.10
2018-04-29T03:53:20.515Z,5.30
2018-04-29T03:55:46.514Z,5.20
2018-04-29T03:58:12.465Z,6.00
2018-04-29T04:00:39.189Z,5.13
2018-04-29T04:03:05.159Z,5.57
2018-04-29T04:05:31.188Z,5.10
2018-04-29T04:07:57.196Z,5.50
2018-04-29T04:10:23.164Z,6.03
2018-04-29T04:12:49.171Z,6.43
2018-04-29T04:15:15.121Z,6.25
2018-04-29T04:17:41.089Z,5.33
2018-04-29T04:20:07.062Z,5.80
2018-04-29T04:22:33.027Z,6.97
2018-04-29T04:24:59.018Z,7.80
2018-04-29T04:27:24.983Z,6.90
2018-04-29T04:29:50.961Z,7.40
2018-04-29T04:32:17.659Z,6.22
2018-04-29T04:34:43.648Z,6.10
2018-04-29T04:37:09.611Z,6.85
2018-04-29T04:39:35.586Z,6.20
2018-04-29T04:42:01.547Z,6.10
2018-04-29T04:44:27.527Z,5.77
2018-04-29T04:46:54.230Z,6.25
2018-04-29T04:49:20.205Z,5.90
2018-04-29T04:51:46.171Z,6.10
2018-04-29T04:54:12.162Z,6.20
2018-04-29T04:56:38.130Z,6.25
2018-04-29T04:59:04.118Z,5.83
2018-04-29T05:01:30.075Z,6.55
2018-04-29T05:03:56.061Z,6.00
2018-04-29T05:06:22.030Z,5.93
2018-04-29T05:08:48.753Z,5.80
2018-04-29T05:11:14.769Z,6.20
2018-04-29T05:13:40.764Z,7.00
2018-04-29T05:16:06.751Z,6.07
2018-04-29T05:18:33.465Z,7.60
2018-04-29T05:20:59.441Z,6.80
2018-04-29T05:23:25.383Z,6.93
2018-04-29T05:25:51.367Z,7.23
2018-04-29T05:28:17.327Z,6.62
2018-04-29T05:30:43.348Z,6.03
2018-04-29T05:33:09.302Z,7.65
2018-04-29T05:35:35.270Z,7.57
2018-04-29T05:38:01.226Z,7.20
2018-04-29T05:40:27.191Z,6.93
2018-04-29T05:42:53.915Z,7.20
2018-04-29T05:45:19.898Z,5.97
2018-04-29T05:47:46.566Z,6.55
2018-04-29T05:50:12.535Z,6.28
2018-04-29T05:52:38.491Z,5.90
2018-04-29T05:55:04.435Z,6.37
2018-04-29T05:57:30.403Z,7.50
2018-04-29T05:59:56.365Z,7.10
2018-04-29T06:02:22.344Z,5.70
2018-04-29T06:04:48.293Z,6.15
2018-04-29T06:07:15.238Z,6.50
2018-04-29T06:09:41.207Z,6.35
2018-04-29T06:12:07.920Z,5.10
2018-04-29T06:14:33.895Z,5.57
2018-04-29T06:17:00.256Z,5.70
2018-04-29T06:19:26.230Z,5.57
2018-04-29T06:21:52.919Z,5.93
2018-04-29T06:24:18.899Z,5.50
2018-04-29T06:26:44.845Z,6.10
2018-04-29T06:29:11.466Z,5.43
2018-04-29T06:31:37.410Z,6.10
2018-04-29T06:34:03.388Z,5.67
2018-04-29T06:36:30.106Z,6.57
2018-04-29T06:38:56.155Z,5.90
2018-04-29T06:41:22.037Z,5.53
2018-04-29T06:43:48.034Z,5.00
2018-04-29T06:46:13.973Z,4.82
2018-04-29T06:48:39.923Z,5.10
2018-04-29T06:51:05.915Z,4.90
2018-04-29T06:53:31.868Z,4.57
2018-04-29T06:55:57.994Z,4.60
2018-04-29T06:58:24.495Z,4.55
2018-04-29T07:00:50.517Z,4.45
2018-04-29T07:03:16.474Z,3.83
2018-04-29T07:05:42.537Z,4.70
2018-04-29T07:08:08.575Z,4.18
2018-04-29T07:10:34.501Z,4.80
2018-04-29T07:13:00.443Z,4.20
2018-04-29T07:15:26.402Z,4.50
2018-04-29T07:17:53.122Z,4.00
2018-04-29T07:20:19.069Z,3.87
2018-04-29T07:22:45.804Z,3.93
2018-04-29T07:25:12.494Z,4.40
2018-04-29T07:27:38.565Z,4.35
2018-04-29T07:30:05.191Z,3.97
2018-04-29T07:32:31.165Z,4.30
2018-04-29T07:34:57.487Z,4.20
2018-04-29T07:37:23.484Z,5.10
2018-04-29T07:39:49.497Z,4.32
2018-04-29T07:42:15.462Z,4.03
2018-04-29T07:44:41.441Z,4.40
2018-04-29T07:47:07.445Z,4.50
2018-04-29T07:49:33.433Z,4.12
2018-04-29T07:51:59.407Z,3.92
2018-04-29T07:54:25.379Z,3.63
2018-04-29T07:56:51.316Z,3.80
2018-04-29T07:59:17.331Z,3.67
2018-04-29T08:01:43.286Z,6.00
2018-04-29T08:04:09.275Z,3.30
2018-04-29T08:06:35.256Z,3.50
2018-04-29T08:09:01.977Z,3.27
2018-04-29T08:11:27.950Z,3.00
2018-04-29T14:14:43.036Z,2.93
2018-04-29T14:17:57.051Z,3.07
2018-04-29T14:20:22.995Z,2.93
2018-04-29T14:22:49.695Z,5.33
2018-04-29T14:25:16.409Z,5.60
2018-04-29T14:27:42.403Z,3.83
2018-04-29T14:30:08.349Z,3.77
2018-04-29T14:32:34.309Z,3.23
2018-04-29T14:35:01.008Z,3.40
2018-04-29T14:37:26.974Z,2.97
2018-04-29T14:39:52.941Z,3.13
2018-04-29T14:42:19.505Z,3.20
2018-04-29T14:44:45.470Z,2.50
2018-04-29T14:47:11.439Z,3.00
2018-04-29T14:49:37.478Z,2.90
2018-04-29T14:52:03.366Z,2.93
2018-04-29T14:54:29.348Z,2.60
2018-04-29T14:56:55.311Z,3.37
2018-04-29T14:59:21.282Z,3.10
2018-04-29T15:01:47.215Z,3.97
2018-04-29T15:04:13.166Z,2.73
2018-04-29T15:06:39.118Z,2.73
2018-04-29T15:09:05.124Z,3.00
2018-04-29T15:11:31.150Z,4.43
2018-04-29T15:13:57.122Z,3.17
2018-04-29T15:16:23.098Z,3.50
2018-04-29T15:18:49.030Z,3.20
2018-04-29T15:21:14.999Z,3.17
2018-04-29T15:23:40.954Z,3.27
2018-04-29T15:26:06.932Z,4.00
2018-04-29T15:28:32.891Z,4.53
2018-04-29T15:30:58.922Z,5.80
2018-04-29T15:33:24.863Z,3.40
2018-04-29T15:35:50.823Z,4.20
2018-04-29T15:38:16.782Z,3.50
2018-04-29T15:40:42.782Z,3.57
2018-04-29T15:43:08.736Z,4.40
2018-04-29T15:45:34.747Z,3.50
2018-04-29T15:48:00.731Z,4.77
2018-04-29T15:50:26.683Z,4.10
2018-04-29T15:52:52.651Z,3.90
2018-04-29T15:55:18.598Z,3.77
2018-04-29T15:57:44.565Z,3.23
2018-04-29T16:00:10.548Z,3.73
2018-04-29T16:02:36.538Z,3.90
2018-04-29T16:05:02.507Z,4.50
2018-04-29T16:07:28.507Z,4.33
2018-04-29T16:09:55.242Z,5.83
2018-04-29T16:12:21.260Z,6.03
2018-04-29T16:14:49.036Z,5.50
2018-04-29T16:17:15.010Z,5.23
2018-04-29T16:19:40.993Z,4.00
2018-04-29T16:22:06.934Z,3.97
2018-04-29T16:24:32.902Z,4.07
2018-04-29T16:26:58.842Z,3.87
2018-04-29T16:29:25.587Z,3.90
2018-04-29T16:31:51.543Z,4.30
2018-04-29T16:34:17.523Z,4.47
2018-04-29T16:36:44.251Z,5.10
2018-04-29T16:39:10.947Z,4.70
2018-04-29T16:41:36.926Z,4.33
2018-04-29T16:44:03.646Z,5.20
2018-04-29T16:46:29.619Z,4.30
2018-04-29T16:48:55.576Z,4.20
2018-04-29T16:51:21.556Z,4.30
2018-04-29T16:53:47.530Z,3.50
2018-04-29T16:56:13.508Z,4.03
2018-04-29T16:58:39.484Z,3.50
2018-04-29T17:01:05.474Z,3.57
2018-04-29T17:03:31.414Z,3.80
2018-04-29T17:05:57.404Z,4.40
2018-04-29T17:08:23.347Z,4.03
2018-04-29T17:10:49.367Z,4.17
2018-04-29T17:13:15.332Z,3.30
2018-04-29T17:15:42.013Z,3.30
2018-04-29T17:18:08.049Z,3.63
2018-04-29T17:20:33.993Z,4.03
2018-04-29T17:22:59.970Z,4.30
2018-04-29T17:25:25.927Z,4.03
2018-04-29T17:27:52.038Z,3.47
2018-04-29T17:30:18.017Z,3.50
2018-04-29T17:32:44.055Z,3.33
2018-04-29T17:35:10.038Z,3.50
2018-04-29T17:37:36.049Z,3.50
2018-04-29T17:40:02.015Z,3.50
2018-04-29T17:42:27.992Z,3.73
2018-04-29T17:44:54.019Z,2.93
2018-04-29T17:47:21.175Z,3.27
2018-04-29T17:49:47.154Z,4.10
2018-04-29T17:52:13.844Z,3.37
2018-04-29T17:54:40.599Z,3.03
2018-04-29T17:57:07.299Z,3.63
2018-04-29T17:59:33.295Z,3.60
2018-04-29T18:01:59.243Z,3.03
2018-04-29T18:04:25.226Z,3.50
2018-04-29T18:06:51.174Z,4.53
2018-04-29T18:09:17.151Z,3.63
2018-04-29T18:11:43.880Z,4.83
2018-04-29T18:14:10.628Z,4.80
2018-04-29T18:16:37.326Z,4.13
2018-04-29T18:19:03.302Z,4.17
2018-04-29T18:21:29.245Z,4.07
2018-04-29T18:23:55.238Z,4.30
2018-04-29T18:26:21.955Z,4.30
2018-04-29T18:28:47.906Z,5.10
2018-04-29T18:31:13.880Z,7.77
2018-04-29T18:33:39.843Z,8.80
2018-04-29T18:36:06.570Z,8.17
2018-04-29T18:38:32.544Z,7.00
2018-04-29T18:40:59.256Z,5.83
2018-04-29T18:43:25.211Z,4.63
2018-04-29T18:45:51.205Z,5.10
2018-04-29T18:48:17.183Z,4.03
2018-04-29T18:50:43.252Z,5.20
2018-04-29T18:53:09.200Z,4.37
2018-04-29T18:55:35.177Z,4.27
2018-04-29T18:58:01.888Z,3.80
2018-04-29T19:00:27.881Z,3.87
2018-04-29T19:02:53.855Z,3.80
2018-04-29T19:05:20.594Z,3.20
2018-04-29T19:07:47.828Z,3.93
2018-04-29T19:10:13.833Z,4.10
2018-04-29T19:12:39.833Z,3.90
2018-04-29T19:15:05.800Z,3.90
2018-04-29T19:17:31.778Z,3.90
2018-04-29T19:19:57.727Z,4.50
2018-04-29T19:22:23.696Z,3.70
2018-04-29T19:24:49.686Z,4.70
2018-04-29T19:27:15.712Z,3.80
2018-04-29T19:29:41.703Z,4.60
2018-04-29T19:32:07.671Z,3.90
2018-04-29T19:34:34.410Z,3.73
2018-04-29T19:37:01.120Z,4.73
2018-04-29T19:39:27.111Z,3.90
2018-04-29T19:41:53.092Z,3.77
2018-04-29T19:44:19.836Z,4.17
2018-04-29T19:46:46.546Z,4.33
2018-04-29T19:49:12.544Z,3.87
2018-04-29T19:51:38.526Z,4.33
2018-04-29T19:54:05.254Z,4.10
2018-04-29T19:56:32.000Z,4.40
2018-04-29T19:58:58.746Z,4.20
2018-04-29T20:01:24.768Z,3.87
2018-04-29T20:03:50.769Z,3.40
2018-04-29T20:06:16.777Z,4.50
2018-04-29T20:08:42.797Z,4.23
2018-04-29T20:11:08.806Z,4.27
2018-04-29T20:13:34.777Z,5.00
2018-04-29T20:16:01.537Z,4.30
2018-04-29T20:18:27.541Z,4.83
2018-04-29T20:20:53.552Z,5.17
2018-04-29T20:23:19.523Z,4.73
2018-04-29T20:25:45.478Z,4.90
2018-04-29T20:28:12.174Z,4.03
2018-04-29T20:30:38.153Z,4.50
2018-04-29T20:33:04.139Z,4.57
2018-04-29T20:35:30.106Z,3.83
2018-04-29T20:37:56.197Z,3.97
2018-04-29T20:40:22.080Z,4.43
2018-04-29T20:42:48.055Z,4.73
2018-04-29T20:45:14.024Z,4.37
2018-04-29T20:47:40.016Z,4.87
2018-04-29T20:50:06.032Z,4.13
2018-04-29T20:52:32.035Z,4.87
2018-04-29T20:54:58.009Z,4.80
2018-04-29T20:57:24.729Z,3.90
2018-04-29T20:59:51.469Z,4.70
2018-04-29T21:02:17.450Z,4.17
2018-04-29T21:04:43.406Z,4.77
2018-04-29T21:07:09.421Z,4.50
2018-04-29T21:09:35.513Z,3.97
2018-04-29T21:12:02.226Z,4.43
2018-04-29T21:14:28.215Z,4.00
2018-04-29T21:16:54.222Z,4.70
2018-04-29T21:19:20.210Z,4.33
2018-04-29T21:21:46.176Z,6.00
2018-04-29T21:24:12.127Z,4.30
2018-04-29T21:26:38.868Z,4.30
2018-04-29T21:29:04.848Z,4.80
2018-04-29T21:31:30.842Z,4.43
2018-04-29T21:33:56.787Z,4.73
2018-04-29T21:36:22.759Z,4.23
2018-04-29T21:38:49.495Z,4.40
2018-04-29T21:41:16.183Z,5.03
2018-04-29T21:43:42.149Z,4.30
2018-04-29T21:46:08.085Z,4.10
2018-04-29T21:48:34.080Z,4.53
2018-04-29T21:51:00.027Z,4.70
2018-04-29T21:53:26.002Z,4.43
2018-04-29T21:55:51.960Z,4.40
2018-04-29T21:58:18.703Z,4.17
2018-04-29T22:00:45.412Z,4.70
2018-04-29T22:03:11.366Z,4.63
2018-04-29T22:05:38.135Z,4.60
2018-04-29T22:08:04.114Z,4.20
2018-04-29T22:10:30.104Z,4.43
2018-04-29T22:12:56.073Z,4.07
2018-04-29T22:15:22.801Z,4.17
2018-04-29T22:17:49.546Z,3.97
2018-04-29T22:20:16.258Z,4.50
2018-04-29T22:22:42.255Z,4.47
2018-04-29T22:25:08.198Z,4.40
2018-04-29T22:27:34.179Z,4.70
2018-04-29T22:30:00.130Z,5.60
2018-04-29T22:32:26.125Z,5.10
2018-04-29T22:34:52.079Z,4.40
2018-04-29T22:37:18.173Z,4.50
2018-04-29T22:39:44.066Z,5.28
2018-04-29T22:42:10.018Z,5.27
2018-04-29T22:44:36.010Z,4.47
2018-04-29T22:47:02.695Z,4.60
2018-04-29T22:49:28.671Z,4.90
2018-04-29T22:51:54.618Z,4.90
2018-04-29T22:54:20.575Z,5.07
2018-04-29T22:56:46.530Z,4.23
2018-04-29T22:59:12.498Z,4.80
2018-04-29T23:01:38.461Z,5.03
2018-04-29T23:04:04.430Z,4.53
2018-04-29T23:06:30.423Z,4.80
2018-04-29T23:08:57.154Z,4.37
2018-04-29T23:11:23.135Z,4.85
2018-04-29T23:13:49.076Z,4.53
2018-04-29T23:16:15.054Z,4.83
2018-04-29T23:18:41.015Z,4.83
2018-04-29T23:21:06.986Z,3.80
2018-04-29T23:23:33.739Z,4.70
2018-04-29T23:26:00.585Z,4.65
2018-04-29T23:28:27.771Z,5.12
2018-04-29T23:30:54.633Z,4.45
2018-04-29T23:33:21.730Z,4.68
2018-04-29T23:35:48.682Z,4.05
2018-04-29T23:38:14.681Z,3.65
2018-04-29T23:40:41.381Z,3.90
2018-04-29T23:43:07.319Z,3.90
2018-04-29T23:45:34.522Z,4.10
2018-04-29T23:48:01.230Z,4.50
2018-04-29T23:50:27.181Z,3.95
2018-04-29T23:52:53.186Z,3.90
2018-04-29T23:55:19.154Z,4.30
2018-04-29T23:57:45.146Z,3.30
